Estación Meteorológica Peña el Pijo (Robertgarden) [ 07/20/18 16:39:51 CEST ]

Fecha Hora Presion(HPa) Temp (°C) Humedad % Rocio (°C) Viento ( m/s) Direccion Lluvia 1Hora(mm) Lluvia 24H(mm) LLuvia Total(mm)
2018-Jan-24 01:01:48 1017.500 0.9 69 -4.2         62.16
2018-Jan-24 02:01:36 1017.000 0.4 70 -4.4         62.16
2018-Jan-24 03:04:08 1016.800 -0.1 72 -4.5         62.16
2018-Jan-24 04:01:49 1016.800 -1.4 74 -5.5         62.16
2018-Jan-24 05:02:01 1016.600 -0.8 75 -4.7         62.16
2018-Jan-24 06:01:46 1016.300 -0.5 76 -4.2         62.16
2018-Jan-24 07:01:44 1016.500 -1.6 77 -5.1         62.16
2018-Jan-24 08:01:40 1016.600 -2.2 78 -5.5         62.16
2018-Jan-24 09:01:51 1016.700 -2.2 79 -5.4         62.16
2018-Jan-24 10:01:43 1016.900 4.6 80 1.4         62.16
2018-Jan-24 11:01:59 1016.800 12.1 54 3.0         62.16
2018-Jan-24 12:01:48 1016.300 16.9 35 1.2 1.6 ENE     62.16
2018-Jan-24 13:01:51 1015.500 17.9 28 -1.0 2.0 SE     62.16
2018-Jan-24 14:01:46 1014.400 20.4 24 -1.1         62.16
2018-Jan-24 15:01:48 1014.000 20.7 24 -0.8         62.16
2018-Jan-24 16:01:48 1013.800 19.8 25 -1.0 1.6 SSW     62.16
2018-Jan-24 17:01:41 1014.100 18.3 28 -0.6         62.16
2018-Jan-24 18:01:37 1014.200 14.3 36 -0.7         62.16
2018-Jan-24 19:01:54 1015.000 9.3 46 -1.8         62.16
2018-Jan-24 20:01:40 1015.300 5.9 55 -2.5         62.16
2018-Jan-24 21:01:48 1015.300 4.4 61 -2.5         62.16
2018-Jan-24 22:01:42 1015.100 3.9 64 -2.3         62.16
2018-Jan-24 23:01:42 1014.800 3.4 66 -2.4         62.16

Temperatura Máxima:20°    Temperatura Mínima:-2°
Presión Máxima:1017.500 Hpa    Presión Mínima:1013.800 Hpa


Volver